sensor_id;sensor_type;location;lat;lon;timestamp;P1;durP1;ratioP1;P2;durP2;ratioP2
10882;SDS011;5494;51.796;10.952;2022-09-09T00:00:47;1.57;;;1.10;;
10882;SDS011;5494;51.796;10.952;2022-09-09T00:03:24;1.47;;;0.90;;
10882;SDS011;5494;51.796;10.952;2022-09-09T00:06:02;0.90;;;0.80;;
10882;SDS011;5494;51.796;10.952;2022-09-09T00:08:44;1.20;;;0.73;;
10882;SDS011;5494;51.796;10.952;2022-09-09T00:11:28;1.33;;;0.90;;
10882;SDS011;5494;51.796;10.952;2022-09-09T00:14:11;2.40;;;1.03;;
10882;SDS011;5494;51.796;10.952;2022-09-09T00:16:51;1.23;;;0.90;;
10882;SDS011;5494;51.796;10.952;2022-09-09T00:19:31;3.10;;;1.03;;
10882;SDS011;5494;51.796;10.952;2022-09-09T00:22:15;2.00;;;1.03;;
10882;SDS011;5494;51.796;10.952;2022-09-09T00:24:48;1.17;;;0.80;;
10882;SDS011;5494;51.796;10.952;2022-09-09T00:27:23;1.13;;;1.00;;
10882;SDS011;5494;51.796;10.952;2022-09-09T00:30:00;1.63;;;1.10;;
10882;SDS011;5494;51.796;10.952;2022-09-09T00:32:42;1.67;;;1.33;;
10882;SDS011;5494;51.796;10.952;2022-09-09T00:35:14;2.20;;;0.93;;
10882;SDS011;5494;51.796;10.952;2022-09-09T00:37:53;2.77;;;1.07;;
10882;SDS011;5494;51.796;10.952;2022-09-09T00:40:30;1.73;;;0.80;;
10882;SDS011;5494;51.796;10.952;2022-09-09T00:43:09;1.97;;;1.20;;
10882;SDS011;5494;51.796;10.952;2022-09-09T00:46:10;3.10;;;0.97;;
10882;SDS011;5494;51.796;10.952;2022-09-09T00:49:30;1.80;;;0.93;;
10882;SDS011;5494;51.796;10.952;2022-09-09T00:52:17;2.53;;;1.00;;
10882;SDS011;5494;51.796;10.952;2022-09-09T00:55:03;2.27;;;1.00;;
10882;SDS011;5494;51.796;10.952;2022-09-09T00:57:40;1.47;;;1.03;;
10882;SDS011;5494;51.796;10.952;2022-09-09T01:00:17;2.40;;;1.07;;
10882;SDS011;5494;51.796;10.952;2022-09-09T01:02:53;2.60;;;1.10;;
10882;SDS011;5494;51.796;10.952;2022-09-09T01:05:49;2.23;;;1.23;;
10882;SDS011;5494;51.796;10.952;2022-09-09T01:08:40;4.40;;;1.47;;
10882;SDS011;5494;51.796;10.952;2022-09-09T01:11:33;1.00;;;0.90;;
10882;SDS011;5494;51.796;10.952;2022-09-09T01:14:20;1.93;;;1.20;;
10882;SDS011;5494;51.796;10.952;2022-09-09T01:17:08;2.10;;;1.20;;
10882;SDS011;5494;51.796;10.952;2022-09-09T01:19:57;3.23;;;1.40;;
10882;SDS011;5494;51.796;10.952;2022-09-09T01:22:59;3.87;;;1.17;;
10882;SDS011;5494;51.796;10.952;2022-09-09T01:26:13;1.90;;;0.90;;
10882;SDS011;5494;51.796;10.952;2022-09-09T01:28:50;3.00;;;1.30;;
10882;SDS011;5494;51.796;10.952;2022-09-09T01:31:27;1.87;;;1.37;;
10882;SDS011;5494;51.796;10.952;2022-09-09T01:34:04;5.20;;;1.47;;
10882;SDS011;5494;51.796;10.952;2022-09-09T01:36:42;1.87;;;1.20;;
10882;SDS011;5494;51.796;10.952;2022-09-09T01:39:18;2.43;;;1.37;;
10882;SDS011;5494;51.796;10.952;2022-09-09T01:41:57;2.03;;;1.40;;
10882;SDS011;5494;51.796;10.952;2022-09-09T01:44:27;3.23;;;1.00;;
10882;SDS011;5494;51.796;10.952;2022-09-09T01:46:58;2.17;;;1.40;;
10882;SDS011;5494;51.796;10.952;2022-09-09T01:49:27;3.23;;;1.47;;
10882;SDS011;5494;51.796;10.952;2022-09-09T01:51:56;1.63;;;1.20;;
10882;SDS011;5494;51.796;10.952;2022-09-09T01:54:31;4.57;;;1.50;;
10882;SDS011;5494;51.796;10.952;2022-09-09T01:57:13;5.37;;;1.60;;
10882;SDS011;5494;51.796;10.952;2022-09-09T01:59:54;4.17;;;1.53;;
10882;SDS011;5494;51.796;10.952;2022-09-09T02:02:42;3.97;;;1.30;;
10882;SDS011;5494;51.796;10.952;2022-09-09T02:05:33;2.93;;;1.20;;
10882;SDS011;5494;51.796;10.952;2022-09-09T02:08:15;6.43;;;1.50;;
10882;SDS011;5494;51.796;10.952;2022-09-09T02:10:58;5.63;;;1.60;;
10882;SDS011;5494;51.796;10.952;2022-09-09T02:13:44;2.77;;;1.80;;
10882;SDS011;5494;51.796;10.952;2022-09-09T02:16:18;4.27;;;1.30;;
10882;SDS011;5494;51.796;10.952;2022-09-09T02:18:55;2.10;;;1.37;;
10882;SDS011;5494;51.796;10.952;2022-09-09T02:21:42;3.73;;;1.20;;
10882;SDS011;5494;51.796;10.952;2022-09-09T02:24:15;4.50;;;2.50;;
10882;SDS011;5494;51.796;10.952;2022-09-09T02:26:52;3.90;;;1.47;;
10882;SDS011;5494;51.796;10.952;2022-09-09T02:29:27;2.57;;;1.30;;
10882;SDS011;5494;51.796;10.952;2022-09-09T02:32:03;3.07;;;1.50;;
10882;SDS011;5494;51.796;10.952;2022-09-09T02:34:39;3.73;;;1.37;;
10882;SDS011;5494;51.796;10.952;2022-09-09T02:37:17;3.00;;;1.40;;
10882;SDS011;5494;51.796;10.952;2022-09-09T02:39:53;1.60;;;1.50;;
10882;SDS011;5494;51.796;10.952;2022-09-09T02:42:24;1.67;;;1.50;;
10882;SDS011;5494;51.796;10.952;2022-09-09T02:44:56;4.43;;;1.50;;
10882;SDS011;5494;51.796;10.952;2022-09-09T02:47:25;4.90;;;1.50;;
10882;SDS011;5494;51.796;10.952;2022-09-09T02:50:11;5.13;;;1.50;;
10882;SDS011;5494;51.796;10.952;2022-09-09T02:52:59;2.63;;;1.20;;
10882;SDS011;5494;51.796;10.952;2022-09-09T02:55:44;1.70;;;1.40;;
10882;SDS011;5494;51.796;10.952;2022-09-09T02:58:22;4.50;;;1.60;;
10882;SDS011;5494;51.796;10.952;2022-09-09T03:01:02;7.07;;;1.70;;
10882;SDS011;5494;51.796;10.952;2022-09-09T03:03:31;6.17;;;1.70;;
10882;SDS011;5494;51.796;10.952;2022-09-09T03:06:06;2.80;;;1.43;;
10882;SDS011;5494;51.796;10.952;2022-09-09T03:08:35;4.67;;;1.63;;
10882;SDS011;5494;51.796;10.952;2022-09-09T03:11:04;3.20;;;1.77;;
10882;SDS011;5494;51.796;10.952;2022-09-09T03:13:36;4.60;;;1.63;;
10882;SDS011;5494;51.796;10.952;2022-09-09T03:16:07;2.70;;;1.50;;
10882;SDS011;5494;51.796;10.952;2022-09-09T03:18:41;4.43;;;1.50;;
10882;SDS011;5494;51.796;10.952;2022-09-09T03:21:12;3.87;;;1.80;;
10882;SDS011;5494;51.796;10.952;2022-09-09T03:23:41;1.57;;;1.33;;
10882;SDS011;5494;51.796;10.952;2022-09-09T03:26:11;3.57;;;1.70;;
10882;SDS011;5494;51.796;10.952;2022-09-09T03:28:44;2.53;;;1.50;;
10882;SDS011;5494;51.796;10.952;2022-09-09T03:31:21;7.00;;;1.80;;
10882;SDS011;5494;51.796;10.952;2022-09-09T03:33:51;2.10;;;1.90;;
10882;SDS011;5494;51.796;10.952;2022-09-09T03:36:21;5.33;;;1.40;;
10882;SDS011;5494;51.796;10.952;2022-09-09T03:38:49;4.93;;;1.53;;
10882;SDS011;5494;51.796;10.952;2022-09-09T03:41:18;4.90;;;1.90;;
10882;SDS011;5494;51.796;10.952;2022-09-09T03:43:46;3.73;;;1.37;;
10882;SDS011;5494;51.796;10.952;2022-09-09T03:46:16;4.43;;;1.53;;
10882;SDS011;5494;51.796;10.952;2022-09-09T03:48:47;5.13;;;1.60;;
10882;SDS011;5494;51.796;10.952;2022-09-09T03:51:16;4.63;;;1.47;;
10882;SDS011;5494;51.796;10.952;2022-09-09T03:53:46;2.47;;;1.43;;
10882;SDS011;5494;51.796;10.952;2022-09-09T03:56:15;4.47;;;1.70;;
10882;SDS011;5494;51.796;10.952;2022-09-09T03:58:43;2.03;;;1.30;;
10882;SDS011;5494;51.796;10.952;2022-09-09T04:01:13;3.80;;;1.30;;
10882;SDS011;5494;51.796;10.952;2022-09-09T04:03:44;2.77;;;1.47;;
10882;SDS011;5494;51.796;10.952;2022-09-09T04:06:14;3.47;;;1.47;;
10882;SDS011;5494;51.796;10.952;2022-09-09T04:08:46;3.77;;;1.73;;
10882;SDS011;5494;51.796;10.952;2022-09-09T04:11:16;3.07;;;1.60;;
10882;SDS011;5494;51.796;10.952;2022-09-09T04:14:06;4.07;;;2.10;;
10882;SDS011;5494;51.796;10.952;2022-09-09T04:16:36;4.20;;;1.60;;
10882;SDS011;5494;51.796;10.952;2022-09-09T04:19:05;2.30;;;1.47;;
10882;SDS011;5494;51.796;10.952;2022-09-09T04:21:35;4.23;;;1.50;;
10882;SDS011;5494;51.796;10.952;2022-09-09T04:24:04;2.13;;;1.50;;
10882;SDS011;5494;51.796;10.952;2022-09-09T04:26:33;3.80;;;1.67;;
10882;SDS011;5494;51.796;10.952;2022-09-09T04:29:04;2.37;;;1.63;;
10882;SDS011;5494;51.796;10.952;2022-09-09T04:31:34;1.97;;;1.50;;
10882;SDS011;5494;51.796;10.952;2022-09-09T04:34:04;2.73;;;1.60;;
10882;SDS011;5494;51.796;10.952;2022-09-09T04:36:32;2.03;;;1.70;;
10882;SDS011;5494;51.796;10.952;2022-09-09T04:39:06;2.60;;;1.60;;
10882;SDS011;5494;51.796;10.952;2022-09-09T04:41:35;3.40;;;2.00;;
10882;SDS011;5494;51.796;10.952;2022-09-09T04:44:04;5.27;;;2.37;;
10882;SDS011;5494;51.796;10.952;2022-09-09T04:46:33;3.50;;;1.63;;
10882;SDS011;5494;51.796;10.952;2022-09-09T04:49:02;2.13;;;1.70;;
10882;SDS011;5494;51.796;10.952;2022-09-09T04:51:31;3.47;;;2.20;;
10882;SDS011;5494;51.796;10.952;2022-09-09T04:54:00;4.30;;;1.70;;
10882;SDS011;5494;51.796;10.952;2022-09-09T04:56:31;3.37;;;1.70;;
10882;SDS011;5494;51.796;10.952;2022-09-09T04:59:00;3.17;;;1.70;;
10882;SDS011;5494;51.796;10.952;2022-09-09T05:01:43;4.67;;;1.67;;
10882;SDS011;5494;51.796;10.952;2022-09-09T05:04:12;3.60;;;2.00;;
10882;SDS011;5494;51.796;10.952;2022-09-09T05:06:42;2.80;;;1.63;;
10882;SDS011;5494;51.796;10.952;2022-09-09T05:09:12;3.50;;;1.70;;
10882;SDS011;5494;51.796;10.952;2022-09-09T05:11:42;7.47;;;2.07;;
10882;SDS011;5494;51.796;10.952;2022-09-09T05:14:18;2.17;;;1.40;;
10882;SDS011;5494;51.796;10.952;2022-09-09T05:16:47;2.87;;;1.63;;
10882;SDS011;5494;51.796;10.952;2022-09-09T05:19:16;1.87;;;1.70;;
10882;SDS011;5494;51.796;10.952;2022-09-09T05:21:48;3.40;;;1.60;;
10882;SDS011;5494;51.796;10.952;2022-09-09T05:24:22;3.33;;;1.60;;
10882;SDS011;5494;51.796;10.952;2022-09-09T05:26:54;4.77;;;1.50;;
10882;SDS011;5494;51.796;10.952;2022-09-09T05:29:24;4.00;;;1.90;;
10882;SDS011;5494;51.796;10.952;2022-09-09T05:31:54;2.23;;;1.60;;
10882;SDS011;5494;51.796;10.952;2022-09-09T05:34:23;2.97;;;1.37;;
10882;SDS011;5494;51.796;10.952;2022-09-09T05:36:52;3.77;;;1.60;;
10882;SDS011;5494;51.796;10.952;2022-09-09T05:39:22;2.80;;;1.67;;
10882;SDS011;5494;51.796;10.952;2022-09-09T05:41:50;3.53;;;2.10;;
10882;SDS011;5494;51.796;10.952;2022-09-09T05:44:20;4.63;;;1.50;;
10882;SDS011;5494;51.796;10.952;2022-09-09T05:46:49;4.93;;;1.70;;
10882;SDS011;5494;51.796;10.952;2022-09-09T05:49:18;3.50;;;1.73;;
10882;SDS011;5494;51.796;10.952;2022-09-09T05:51:47;2.03;;;1.63;;
10882;SDS011;5494;51.796;10.952;2022-09-09T05:54:18;2.53;;;1.43;;
10882;SDS011;5494;51.796;10.952;2022-09-09T05:56:49;6.37;;;1.70;;
10882;SDS011;5494;51.796;10.952;2022-09-09T05:59:20;2.30;;;1.23;;
10882;SDS011;5494;51.796;10.952;2022-09-09T06:01:51;4.13;;;1.67;;
10882;SDS011;5494;51.796;10.952;2022-09-09T06:04:26;2.33;;;1.67;;
10882;SDS011;5494;51.796;10.952;2022-09-09T06:06:54;2.73;;;1.50;;
10882;SDS011;5494;51.796;10.952;2022-09-09T06:09:23;3.53;;;1.47;;
10882;SDS011;5494;51.796;10.952;2022-09-09T06:11:52;4.07;;;1.50;;
10882;SDS011;5494;51.796;10.952;2022-09-09T06:14:24;3.23;;;1.40;;
10882;SDS011;5494;51.796;10.952;2022-09-09T06:16:56;4.23;;;1.73;;
10882;SDS011;5494;51.796;10.952;2022-09-09T06:19:28;2.83;;;1.27;;
10882;SDS011;5494;51.796;10.952;2022-09-09T06:21:58;2.60;;;1.20;;
10882;SDS011;5494;51.796;10.952;2022-09-09T06:24:29;3.80;;;1.40;;
10882;SDS011;5494;51.796;10.952;2022-09-09T06:26:59;2.70;;;1.20;;
10882;SDS011;5494;51.796;10.952;2022-09-09T06:29:33;3.77;;;1.20;;
10882;SDS011;5494;51.796;10.952;2022-09-09T06:32:02;3.97;;;1.20;;
10882;SDS011;5494;51.796;10.952;2022-09-09T06:34:31;4.27;;;1.50;;
10882;SDS011;5494;51.796;10.952;2022-09-09T06:37:00;2.80;;;1.40;;
10882;SDS011;5494;51.796;10.952;2022-09-09T06:39:35;2.10;;;1.20;;
10882;SDS011;5494;51.796;10.952;2022-09-09T06:42:03;3.67;;;1.10;;
10882;SDS011;5494;51.796;10.952;2022-09-09T06:44:52;4.00;;;1.47;;
10882;SDS011;5494;51.796;10.952;2022-09-09T06:47:38;2.47;;;1.30;;
10882;SDS011;5494;51.796;10.952;2022-09-09T06:50:07;4.07;;;1.47;;
10882;SDS011;5494;51.796;10.952;2022-09-09T06:52:39;2.90;;;1.20;;
10882;SDS011;5494;51.796;10.952;2022-09-09T06:55:08;3.57;;;1.27;;
10882;SDS011;5494;51.796;10.952;2022-09-09T06:57:37;3.23;;;1.50;;
10882;SDS011;5494;51.796;10.952;2022-09-09T07:00:13;3.00;;;1.43;;
10882;SDS011;5494;51.796;10.952;2022-09-09T07:02:42;2.67;;;1.00;;
10882;SDS011;5494;51.796;10.952;2022-09-09T07:05:12;3.73;;;1.60;;
10882;SDS011;5494;51.796;10.952;2022-09-09T07:07:43;1.97;;;1.13;;
10882;SDS011;5494;51.796;10.952;2022-09-09T07:10:14;3.20;;;1.17;;
10882;SDS011;5494;51.796;10.952;2022-09-09T07:12:43;2.20;;;1.30;;
10882;SDS011;5494;51.796;10.952;2022-09-09T07:15:13;3.43;;;1.03;;
10882;SDS011;5494;51.796;10.952;2022-09-09T07:17:44;4.33;;;1.30;;
10882;SDS011;5494;51.796;10.952;2022-09-09T07:20:13;4.20;;;1.10;;
10882;SDS011;5494;51.796;10.952;2022-09-09T07:22:43;2.10;;;1.00;;
10882;SDS011;5494;51.796;10.952;2022-09-09T07:25:11;2.53;;;1.23;;
10882;SDS011;5494;51.796;10.952;2022-09-09T07:27:41;3.50;;;1.73;;
10882;SDS011;5494;51.796;10.952;2022-09-09T07:30:10;3.33;;;1.20;;
10882;SDS011;5494;51.796;10.952;2022-09-09T07:32:50;1.50;;;1.03;;
10882;SDS011;5494;51.796;10.952;2022-09-09T07:35:19;2.63;;;1.20;;
10882;SDS011;5494;51.796;10.952;2022-09-09T07:37:48;2.43;;;1.20;;
10882;SDS011;5494;51.796;10.952;2022-09-09T07:40:18;4.00;;;1.30;;
10882;SDS011;5494;51.796;10.952;2022-09-09T07:42:48;2.50;;;1.20;;
10882;SDS011;5494;51.796;10.952;2022-09-09T07:45:17;3.80;;;1.20;;
10882;SDS011;5494;51.796;10.952;2022-09-09T07:47:45;3.40;;;1.00;;
10882;SDS011;5494;51.796;10.952;2022-09-09T07:50:17;3.43;;;1.30;;
10882;SDS011;5494;51.796;10.952;2022-09-09T07:52:47;2.90;;;1.10;;
10882;SDS011;5494;51.796;10.952;2022-09-09T07:55:16;2.47;;;1.10;;
10882;SDS011;5494;51.796;10.952;2022-09-09T07:57:45;3.20;;;1.53;;
10882;SDS011;5494;51.796;10.952;2022-09-09T08:00:14;4.63;;;1.30;;
10882;SDS011;5494;51.796;10.952;2022-09-09T08:02:49;2.63;;;1.20;;
10882;SDS011;5494;51.796;10.952;2022-09-09T08:05:22;4.17;;;1.20;;
10882;SDS011;5494;51.796;10.952;2022-09-09T08:07:52;4.20;;;1.23;;
10882;SDS011;5494;51.796;10.952;2022-09-09T08:10:20;2.83;;;1.53;;
10882;SDS011;5494;51.796;10.952;2022-09-09T08:12:50;4.70;;;1.53;;
10882;SDS011;5494;51.796;10.952;2022-09-09T08:15:39;2.83;;;1.23;;
10882;SDS011;5494;51.796;10.952;2022-09-09T08:18:08;4.73;;;1.10;;
10882;SDS011;5494;51.796;10.952;2022-09-09T08:20:38;5.03;;;1.80;;
10882;SDS011;5494;51.796;10.952;2022-09-09T08:23:07;2.27;;;1.10;;
10882;SDS011;5494;51.796;10.952;2022-09-09T08:25:36;1.80;;;1.00;;
10882;SDS011;5494;51.796;10.952;2022-09-09T08:28:05;4.43;;;1.10;;
10882;SDS011;5494;51.796;10.952;2022-09-09T08:30:33;2.13;;;1.00;;
10882;SDS011;5494;51.796;10.952;2022-09-09T08:33:02;2.93;;;1.00;;
10882;SDS011;5494;51.796;10.952;2022-09-09T08:35:32;5.50;;;1.03;;
10882;SDS011;5494;51.796;10.952;2022-09-09T08:38:02;4.17;;;1.10;;
10882;SDS011;5494;51.796;10.952;2022-09-09T08:40:37;2.90;;;1.10;;
10882;SDS011;5494;51.796;10.952;2022-09-09T08:43:16;2.77;;;1.13;;
10882;SDS011;5494;51.796;10.952;2022-09-09T08:45:50;2.17;;;0.90;;
10882;SDS011;5494;51.796;10.952;2022-09-09T08:48:36;1.93;;;0.63;;
10882;SDS011;5494;51.796;10.952;2022-09-09T08:51:21;2.97;;;1.23;;
10882;SDS011;5494;51.796;10.952;2022-09-09T08:53:56;5.80;;;1.10;;
10882;SDS011;5494;51.796;10.952;2022-09-09T08:56:27;4.10;;;1.00;;
10882;SDS011;5494;51.796;10.952;2022-09-09T08:59:02;4.63;;;1.03;;
10882;SDS011;5494;51.796;10.952;2022-09-09T09:01:40;3.83;;;1.20;;
10882;SDS011;5494;51.796;10.952;2022-09-09T09:04:38;4.33;;;1.07;;
10882;SDS011;5494;51.796;10.952;2022-09-09T09:07:25;2.87;;;1.07;;
10882;SDS011;5494;51.796;10.952;2022-09-09T09:10:12;4.10;;;1.17;;
10882;SDS011;5494;51.796;10.952;2022-09-09T09:13:07;2.27;;;1.10;;
10882;SDS011;5494;51.796;10.952;2022-09-09T09:15:47;2.97;;;1.03;;
10882;SDS011;5494;51.796;10.952;2022-09-09T09:18:21;2.37;;;0.90;;
10882;SDS011;5494;51.796;10.952;2022-09-09T09:20:54;2.23;;;1.10;;
10882;SDS011;5494;51.796;10.952;2022-09-09T09:23:35;3.70;;;1.10;;
10882;SDS011;5494;51.796;10.952;2022-09-09T09:26:14;4.23;;;1.20;;
10882;SDS011;5494;51.796;10.952;2022-09-09T09:28:43;3.07;;;1.00;;
10882;SDS011;5494;51.796;10.952;2022-09-09T09:31:15;5.17;;;1.30;;
10882;SDS011;5494;51.796;10.952;2022-09-09T09:33:50;3.03;;;1.10;;
10882;SDS011;5494;51.796;10.952;2022-09-09T09:36:25;3.97;;;1.30;;
10882;SDS011;5494;51.796;10.952;2022-09-09T09:39:06;3.13;;;1.33;;
10882;SDS011;5494;51.796;10.952;2022-09-09T09:42:08;2.43;;;1.17;;
10882;SDS011;5494;51.796;10.952;2022-09-09T09:44:42;4.07;;;1.23;;
10882;SDS011;5494;51.796;10.952;2022-09-09T09:47:19;2.47;;;1.00;;
10882;SDS011;5494;51.796;10.952;2022-09-09T09:50:16;3.67;;;1.07;;
10882;SDS011;5494;51.796;10.952;2022-09-09T09:52:53;2.33;;;0.90;;
10882;SDS011;5494;51.796;10.952;2022-09-09T09:55:24;3.37;;;1.23;;
10882;SDS011;5494;51.796;10.952;2022-09-09T09:57:56;2.27;;;1.00;;
10882;SDS011;5494;51.796;10.952;2022-09-09T10:00:38;2.80;;;1.40;;
10882;SDS011;5494;51.796;10.952;2022-09-09T10:03:22;2.73;;;1.00;;
10882;SDS011;5494;51.796;10.952;2022-09-09T10:05:55;3.00;;;1.00;;
10882;SDS011;5494;51.796;10.952;2022-09-09T10:08:24;2.23;;;1.30;;
10882;SDS011;5494;51.796;10.952;2022-09-09T10:11:05;2.23;;;1.13;;
10882;SDS011;5494;51.796;10.952;2022-09-09T10:13:53;4.63;;;1.37;;
10882;SDS011;5494;51.796;10.952;2022-09-09T10:16:37;3.17;;;0.93;;
10882;SDS011;5494;51.796;10.952;2022-09-09T10:19:26;2.93;;;1.07;;
10882;SDS011;5494;51.796;10.952;2022-09-09T10:22:05;4.53;;;1.30;;
10882;SDS011;5494;51.796;10.952;2022-09-09T10:25:02;2.73;;;1.30;;
10882;SDS011;5494;51.796;10.952;2022-09-09T10:27:59;2.00;;;1.00;;
10882;SDS011;5494;51.796;10.952;2022-09-09T10:30:54;5.60;;;1.10;;
10882;SDS011;5494;51.796;10.952;2022-09-09T10:33:44;3.13;;;1.07;;
10882;SDS011;5494;51.796;10.952;2022-09-09T10:36:24;2.17;;;1.20;;
10882;SDS011;5494;51.796;10.952;2022-09-09T10:38:57;5.43;;;1.30;;
10882;SDS011;5494;51.796;10.952;2022-09-09T10:41:35;3.70;;;1.30;;
10882;SDS011;5494;51.796;10.952;2022-09-09T10:44:21;4.30;;;1.40;;
10882;SDS011;5494;51.796;10.952;2022-09-09T10:47:09;3.10;;;1.30;;
10882;SDS011;5494;51.796;10.952;2022-09-09T10:50:14;4.10;;;1.07;;
10882;SDS011;5494;51.796;10.952;2022-09-09T10:53:24;2.43;;;1.00;;
10882;SDS011;5494;51.796;10.952;2022-09-09T10:56:06;3.40;;;1.00;;
10882;SDS011;5494;51.796;10.952;2022-09-09T10:58:40;2.57;;;1.00;;
10882;SDS011;5494;51.796;10.952;2022-09-09T11:01:18;2.63;;;1.40;;
10882;SDS011;5494;51.796;10.952;2022-09-09T11:03:54;4.53;;;1.30;;
10882;SDS011;5494;51.796;10.952;2022-09-09T11:06:32;3.43;;;1.00;;
10882;SDS011;5494;51.796;10.952;2022-09-09T11:09:08;4.37;;;1.17;;
10882;SDS011;5494;51.796;10.952;2022-09-09T11:11:45;2.97;;;1.10;;
10882;SDS011;5494;51.796;10.952;2022-09-09T11:14:22;2.43;;;1.00;;
10882;SDS011;5494;51.796;10.952;2022-09-09T11:17:04;2.07;;;1.00;;
10882;SDS011;5494;51.796;10.952;2022-09-09T11:19:41;2.43;;;1.07;;
10882;SDS011;5494;51.796;10.952;2022-09-09T11:22:16;3.27;;;1.13;;
10882;SDS011;5494;51.796;10.952;2022-09-09T11:24:57;2.13;;;0.80;;
10882;SDS011;5494;51.796;10.952;2022-09-09T11:27:36;1.13;;;1.00;;
10882;SDS011;5494;51.796;10.952;2022-09-09T11:30:29;7.03;;;1.10;;
10882;SDS011;5494;51.796;10.952;2022-09-09T11:39:53;6.40;;;1.10;;
10882;SDS011;5494;51.796;10.952;2022-09-09T11:42:42;2.70;;;1.53;;
10882;SDS011;5494;51.796;10.952;2022-09-09T11:45:15;1.97;;;0.93;;
10882;SDS011;5494;51.796;10.952;2022-09-09T11:47:52;3.80;;;0.90;;
10882;SDS011;5494;51.796;10.952;2022-09-09T11:50:28;2.90;;;0.97;;
10882;SDS011;5494;51.796;10.952;2022-09-09T11:53:05;1.93;;;0.73;;
10882;SDS011;5494;51.796;10.952;2022-09-09T11:56:02;3.13;;;1.03;;
10882;SDS011;5494;51.796;10.952;2022-09-09T11:58:39;2.87;;;1.00;;
10882;SDS011;5494;51.796;10.952;2022-09-09T12:01:14;3.03;;;1.00;;
10882;SDS011;5494;51.796;10.952;2022-09-09T12:04:00;1.57;;;0.87;;
10882;SDS011;5494;51.796;10.952;2022-09-09T12:06:49;2.23;;;1.20;;
10882;SDS011;5494;51.796;10.952;2022-09-09T12:09:25;3.20;;;0.93;;
10882;SDS011;5494;51.796;10.952;2022-09-09T12:12:05;1.93;;;0.90;;
10882;SDS011;5494;51.796;10.952;2022-09-09T12:14:55;6.00;;;1.13;;
10882;SDS011;5494;51.796;10.952;2022-09-09T12:17:56;3.63;;;1.07;;
10882;SDS011;5494;51.796;10.952;2022-09-09T12:20:31;1.63;;;0.63;;
10882;SDS011;5494;51.796;10.952;2022-09-09T12:23:06;1.90;;;0.70;;
10882;SDS011;5494;51.796;10.952;2022-09-09T12:25:54;1.77;;;1.07;;
10882;SDS011;5494;51.796;10.952;2022-09-09T12:28:44;2.63;;;0.90;;
10882;SDS011;5494;51.796;10.952;2022-09-09T12:31:26;2.53;;;0.70;;
10882;SDS011;5494;51.796;10.952;2022-09-09T12:34:04;3.80;;;1.17;;
10882;SDS011;5494;51.796;10.952;2022-09-09T12:36:42;2.40;;;0.80;;
10882;SDS011;5494;51.796;10.952;2022-09-09T12:39:22;2.30;;;0.80;;
10882;SDS011;5494;51.796;10.952;2022-09-09T12:42:01;2.13;;;0.80;;
10882;SDS011;5494;51.796;10.952;2022-09-09T12:44:31;3.60;;;0.90;;
10882;SDS011;5494;51.796;10.952;2022-09-09T12:47:00;2.17;;;0.80;;
10882;SDS011;5494;51.796;10.952;2022-09-09T12:49:32;1.43;;;0.70;;
10882;SDS011;5494;51.796;10.952;2022-09-09T12:52:07;2.87;;;0.93;;
10882;SDS011;5494;51.796;10.952;2022-09-09T12:54:45;2.43;;;0.80;;
10882;SDS011;5494;51.796;10.952;2022-09-09T12:57:19;1.87;;;0.97;;
10882;SDS011;5494;51.796;10.952;2022-09-09T12:59:52;1.63;;;0.80;;
10882;SDS011;5494;51.796;10.952;2022-09-09T13:02:44;1.23;;;0.83;;
10882;SDS011;5494;51.796;10.952;2022-09-09T13:05:18;1.67;;;0.70;;
10882;SDS011;5494;51.796;10.952;2022-09-09T13:07:50;1.70;;;0.80;;
10882;SDS011;5494;51.796;10.952;2022-09-09T13:10:21;3.73;;;0.97;;
10882;SDS011;5494;51.796;10.952;2022-09-09T13:13:17;3.33;;;1.40;;
10882;SDS011;5494;51.796;10.952;2022-09-09T13:15:51;2.83;;;0.67;;
10882;SDS011;5494;51.796;10.952;2022-09-09T13:18:24;2.73;;;0.80;;
10882;SDS011;5494;51.796;10.952;2022-09-09T13:20:57;0.87;;;0.50;;
10882;SDS011;5494;51.796;10.952;2022-09-09T13:23:26;2.77;;;0.77;;
10882;SDS011;5494;51.796;10.952;2022-09-09T13:25:59;2.03;;;0.87;;
10882;SDS011;5494;51.796;10.952;2022-09-09T13:28:34;1.77;;;0.80;;
10882;SDS011;5494;51.796;10.952;2022-09-09T13:31:03;2.90;;;0.70;;
10882;SDS011;5494;51.796;10.952;2022-09-09T13:33:47;1.77;;;0.67;;
10882;SDS011;5494;51.796;10.952;2022-09-09T13:36:16;2.50;;;1.00;;
10882;SDS011;5494;51.796;10.952;2022-09-09T13:38:57;2.60;;;1.13;;
10882;SDS011;5494;51.796;10.952;2022-09-09T13:41:28;1.80;;;0.60;;
10882;SDS011;5494;51.796;10.952;2022-09-09T13:44:03;1.47;;;0.60;;
10882;SDS011;5494;51.796;10.952;2022-09-09T13:46:33;2.00;;;0.70;;
10882;SDS011;5494;51.796;10.952;2022-09-09T13:49:18;2.93;;;0.90;;
10882;SDS011;5494;51.796;10.952;2022-09-09T13:51:50;1.40;;;0.80;;
10882;SDS011;5494;51.796;10.952;2022-09-09T13:54:20;1.00;;;0.60;;
10882;SDS011;5494;51.796;10.952;2022-09-09T13:56:49;2.60;;;0.77;;
10882;SDS011;5494;51.796;10.952;2022-09-09T13:59:19;2.40;;;0.70;;
10882;SDS011;5494;51.796;10.952;2022-09-09T14:01:48;1.57;;;0.80;;
10882;SDS011;5494;51.796;10.952;2022-09-09T14:04:19;2.43;;;0.77;;
10882;SDS011;5494;51.796;10.952;2022-09-09T14:06:48;1.87;;;0.77;;
10882;SDS011;5494;51.796;10.952;2022-09-09T14:09:18;1.63;;;0.87;;
10882;SDS011;5494;51.796;10.952;2022-09-09T14:11:47;3.90;;;0.93;;
10882;SDS011;5494;51.796;10.952;2022-09-09T14:14:16;1.97;;;0.60;;
10882;SDS011;5494;51.796;10.952;2022-09-09T14:16:46;2.33;;;0.77;;
10882;SDS011;5494;51.796;10.952;2022-09-09T14:19:14;2.27;;;0.73;;
10882;SDS011;5494;51.796;10.952;2022-09-09T14:21:43;3.47;;;1.00;;
10882;SDS011;5494;51.796;10.952;2022-09-09T14:24:11;1.33;;;0.70;;
10882;SDS011;5494;51.796;10.952;2022-09-09T14:26:40;2.50;;;0.70;;
10882;SDS011;5494;51.796;10.952;2022-09-09T14:29:08;2.17;;;0.80;;
10882;SDS011;5494;51.796;10.952;2022-09-09T14:31:37;3.30;;;1.10;;
10882;SDS011;5494;51.796;10.952;2022-09-09T14:34:07;3.13;;;0.90;;
10882;SDS011;5494;51.796;10.952;2022-09-09T14:36:37;2.83;;;0.80;;
10882;SDS011;5494;51.796;10.952;2022-09-09T14:39:05;3.27;;;0.90;;
10882;SDS011;5494;51.796;10.952;2022-09-09T14:41:34;2.53;;;0.80;;
10882;SDS011;5494;51.796;10.952;2022-09-09T14:44:02;2.13;;;0.80;;
10882;SDS011;5494;51.796;10.952;2022-09-09T14:46:30;1.60;;;0.63;;
10882;SDS011;5494;51.796;10.952;2022-09-09T14:49:00;2.07;;;0.87;;
10882;SDS011;5494;51.796;10.952;2022-09-09T14:51:30;1.93;;;1.10;;
10882;SDS011;5494;51.796;10.952;2022-09-09T14:53:58;1.50;;;0.80;;
10882;SDS011;5494;51.796;10.952;2022-09-09T14:56:29;2.00;;;0.90;;
10882;SDS011;5494;51.796;10.952;2022-09-09T14:59:01;1.90;;;0.60;;
10882;SDS011;5494;51.796;10.952;2022-09-09T15:01:31;1.73;;;0.60;;
10882;SDS011;5494;51.796;10.952;2022-09-09T15:04:02;1.83;;;0.90;;
10882;SDS011;5494;51.796;10.952;2022-09-09T15:06:34;5.17;;;1.00;;
10882;SDS011;5494;51.796;10.952;2022-09-09T15:09:06;2.00;;;0.93;;
10882;SDS011;5494;51.796;10.952;2022-09-09T15:11:35;1.43;;;0.70;;
10882;SDS011;5494;51.796;10.952;2022-09-09T15:14:05;1.67;;;0.83;;
10882;SDS011;5494;51.796;10.952;2022-09-09T15:16:36;0.87;;;0.60;;
10882;SDS011;5494;51.796;10.952;2022-09-09T15:19:07;1.70;;;0.77;;
10882;SDS011;5494;51.796;10.952;2022-09-09T15:21:38;2.73;;;1.00;;
10882;SDS011;5494;51.796;10.952;2022-09-09T15:24:06;2.97;;;0.77;;
10882;SDS011;5494;51.796;10.952;2022-09-09T15:26:35;2.10;;;0.63;;
10882;SDS011;5494;51.796;10.952;2022-09-09T15:29:06;2.40;;;0.93;;
10882;SDS011;5494;51.796;10.952;2022-09-09T15:31:36;1.67;;;0.70;;
10882;SDS011;5494;51.796;10.952;2022-09-09T15:34:06;2.23;;;1.07;;
10882;SDS011;5494;51.796;10.952;2022-09-09T15:36:35;3.57;;;1.30;;
10882;SDS011;5494;51.796;10.952;2022-09-09T15:39:08;4.13;;;1.20;;
10882;SDS011;5494;51.796;10.952;2022-09-09T15:41:39;3.70;;;0.97;;
10882;SDS011;5494;51.796;10.952;2022-09-09T15:44:08;2.20;;;1.03;;